createdAt,value
2019-01-31T00:00:45.096Z,94738.22
2019-01-31T00:03:52.078Z,94739.80
2019-01-31T00:07:00.527Z,94736.20
2019-01-31T00:10:07.505Z,94734.02
2019-01-31T00:13:15.998Z,94729.76
2019-01-31T00:16:24.312Z,94727.25
2019-01-31T00:19:32.653Z,94727.53
2019-01-31T00:22:39.634Z,94725.24
2019-01-31T00:25:48.304Z,94718.87
2019-01-31T00:28:56.670Z,94718.06
2019-01-31T00:32:05.426Z,94721.13
2019-01-31T00:35:12.404Z,94724.22
2019-01-31T00:38:20.758Z,94717.99
2019-01-31T00:41:27.745Z,94721.13
2019-01-31T00:44:36.196Z,94717.05
2019-01-31T00:47:43.234Z,94716.23
2019-01-31T00:50:51.664Z,94714.94
2019-01-31T00:54:00.026Z,94714.26
2019-01-31T00:57:07.043Z,94718.93
2019-01-31T01:00:14.022Z,94716.42
2019-01-31T01:03:21.078Z,94724.66
2019-01-31T01:06:29.392Z,94716.20
2019-01-31T01:09:37.736Z,94717.49
2019-01-31T01:12:44.726Z,94725.75
2019-01-31T01:15:53.274Z,94721.67
2019-01-31T01:19:01.698Z,94725.38
2019-01-31T01:22:10.412Z,94720.81
2019-01-31T01:25:17.400Z,94719.64
2019-01-31T01:28:24.487Z,94716.42
2019-01-31T01:31:31.473Z,94713.96
2019-01-31T01:34:38.562Z,94718.34
2019-01-31T01:37:45.552Z,94713.83
2019-01-31T01:40:52.568Z,94706.20
2019-01-31T01:43:59.560Z,94703.79
2019-01-31T01:47:06.731Z,94696.70
2019-01-31T01:50:13.719Z,94697.50
2019-01-31T01:52:54.636Z,94691.50
2019-01-31T01:56:01.724Z,94691.19
2019-01-31T01:59:10.262Z,94690.56
2019-01-31T02:02:18.542Z,94686.66
2019-01-31T02:05:25.630Z,94690.07
2019-01-31T02:08:32.618Z,94682.27
2019-01-31T02:11:40.974Z,94673.17
2019-01-31T02:14:49.342Z,94668.14
2019-01-31T02:17:57.736Z,94665.86
2019-01-31T02:21:06.046Z,94663.08
2019-01-31T02:24:14.492Z,94660.97
2019-01-31T02:27:21.466Z,94657.53
2019-01-31T02:30:28.501Z,94650.84
2019-01-31T02:33:37.344Z,94649.37
2019-01-31T02:36:45.781Z,94650.63
2019-01-31T02:39:52.773Z,94649.11
2019-01-31T02:43:01.272Z,94643.24
2019-01-31T02:46:08.264Z,94638.62
2019-01-31T02:49:16.659Z,94645.22
2019-01-31T02:52:25.030Z,94641.77
2019-01-31T02:55:05.288Z,94638.81
2019-01-31T02:58:12.349Z,94632.77
2019-01-31T03:01:19.653Z,94629.95
2019-01-31T03:04:26.595Z,94627.03
2019-01-31T03:07:33.606Z,94622.65
2019-01-31T03:10:41.978Z,94622.78
2019-01-31T03:13:50.372Z,94612.74
2019-01-31T03:16:57.369Z,94615.20
2019-01-31T03:20:04.719Z,94609.52
2019-01-31T03:23:13.026Z,94612.78
2019-01-31T03:26:20.036Z,94606.25
2019-01-31T03:29:28.429Z,94604.95
2019-01-31T03:32:36.841Z,94603.97
2019-01-31T03:35:45.206Z,94605.76
2019-01-31T03:38:53.789Z,94603.30
2019-01-31T03:42:00.782Z,94602.63
2019-01-31T03:45:09.527Z,94598.20
2019-01-31T03:48:16.500Z,94601.59
2019-01-31T03:51:25.014Z,94595.09
2019-01-31T03:54:33.339Z,94594.12
2019-01-31T03:57:41.888Z,94598.99
2019-01-31T04:00:48.889Z,94594.07
2019-01-31T04:03:57.505Z,94591.42
2019-01-31T04:06:25.962Z,94590.89
2019-01-31T04:08:54.459Z,94590.03
2019-01-31T04:11:22.858Z,94598.02
2019-01-31T04:13:51.272Z,94590.66
2019-01-31T04:16:19.665Z,94587.53
2019-01-31T04:18:48.102Z,94579.52
2019-01-31T04:21:16.500Z,94580.64
2019-01-31T04:23:44.892Z,94574.28
2019-01-31T04:26:13.472Z,94569.09
2019-01-31T04:28:43.527Z,94567.74
2019-01-31T04:31:11.906Z,94562.23
2019-01-31T04:33:40.411Z,94560.26
2019-01-31T04:36:08.875Z,94556.64
2019-01-31T04:38:37.332Z,94554.53
2019-01-31T04:41:05.909Z,94545.98
2019-01-31T04:43:34.300Z,94552.30
2019-01-31T04:46:02.705Z,94555.73
2019-01-31T04:48:31.185Z,94546.30
2019-01-31T04:50:59.584Z,94545.93
2019-01-31T04:53:27.978Z,94544.77
2019-01-31T04:55:56.436Z,94539.85
2019-01-31T04:58:24.900Z,94541.59
2019-01-31T05:00:53.299Z,94541.86
2019-01-31T05:03:22.189Z,94540.70
2019-01-31T05:05:50.604Z,94536.34
2019-01-31T05:08:18.995Z,94531.78
2019-01-31T05:10:47.493Z,94528.44
2019-01-31T05:13:15.890Z,94523.95
2019-01-31T05:15:44.350Z,94517.58
2019-01-31T05:18:12.778Z,94516.88
2019-01-31T05:20:41.239Z,94506.17
2019-01-31T05:23:09.637Z,94508.09
2019-01-31T05:25:38.101Z,94507.42
2019-01-31T05:28:06.544Z,94497.98
2019-01-31T05:30:35.105Z,94499.59
2019-01-31T05:33:03.885Z,94503.13
2019-01-31T05:35:32.285Z,94498.02
2019-01-31T05:38:00.682Z,94500.70
2019-01-31T05:40:29.325Z,94496.43
2019-01-31T05:42:57.705Z,94499.16
2019-01-31T05:45:26.131Z,94488.30
2019-01-31T05:47:54.632Z,94488.43
2019-01-31T05:50:23.028Z,94488.73
2019-01-31T05:52:51.425Z,94485.91
2019-01-31T05:55:19.889Z,94487.38
2019-01-31T05:57:48.278Z,94482.02
2019-01-31T06:00:21.592Z,94475.27
2019-01-31T06:02:50.007Z,94483.11
2019-01-31T06:05:18.540Z,94483.78
2019-01-31T06:07:46.933Z,94485.44
2019-01-31T06:10:15.633Z,94485.48
2019-01-31T06:12:44.124Z,94491.34
2019-01-31T06:15:19.324Z,94496.41
2019-01-31T06:17:47.748Z,94496.72
2019-01-31T06:20:24.620Z,94496.27
2019-01-31T06:22:53.465Z,94488.48
2019-01-31T06:25:22.109Z,94493.67
2019-01-31T06:27:50.592Z,94489.43
2019-01-31T06:30:19.754Z,94488.75
2019-01-31T06:32:48.214Z,94483.03
2019-01-31T06:35:16.849Z,94487.89
2019-01-31T06:37:45.482Z,94485.56
2019-01-31T06:40:16.510Z,94492.05
2019-01-31T06:42:44.983Z,94494.45
2019-01-31T06:45:16.869Z,94496.70
2019-01-31T06:47:45.328Z,94493.30
2019-01-31T06:50:13.965Z,94498.67
2019-01-31T06:52:42.446Z,94504.53
2019-01-31T06:55:11.984Z,94497.91
2019-01-31T06:57:42.076Z,94499.70
2019-01-31T07:00:13.734Z,94505.56
2019-01-31T07:02:42.207Z,94506.72
2019-01-31T07:05:10.877Z,94509.15
2019-01-31T07:07:40.945Z,94501.72
2019-01-31T07:10:20.526Z,94502.39
2019-01-31T07:12:49.108Z,94494.97
2019-01-31T07:15:17.581Z,94500.61
2019-01-31T07:17:45.975Z,94503.70
2019-01-31T07:20:18.951Z,94504.37
2019-01-31T07:22:47.340Z,94502.45
2019-01-31T07:25:20.985Z,94503.48
2019-01-31T07:27:49.432Z,94500.98
2019-01-31T07:30:20.528Z,94504.98
2019-01-31T07:32:49.022Z,94506.05
2019-01-31T07:35:17.909Z,94505.83
2019-01-31T07:37:46.375Z,94510.23
2019-01-31T07:40:22.793Z,94510.14
2019-01-31T07:42:51.356Z,94510.44
2019-01-31T07:45:28.080Z,94509.09
2019-01-31T07:47:56.549Z,94502.02
2019-01-31T07:50:25.377Z,94504.52
2019-01-31T07:52:54.071Z,94511.81
2019-01-31T07:55:22.541Z,94507.78
2019-01-31T07:57:51.812Z,94511.09
2019-01-31T08:00:25.463Z,94512.01
2019-01-31T08:02:54.104Z,94512.44
2019-01-31T08:05:24.396Z,94511.25
2019-01-31T08:07:54.960Z,94516.55
2019-01-31T08:10:28.922Z,94511.77
2019-01-31T08:12:57.314Z,94506.45
2019-01-31T08:15:25.737Z,94517.55
2019-01-31T08:17:54.123Z,94520.70
2019-01-31T08:20:22.516Z,94512.30
2019-01-31T08:22:50.931Z,94515.96
2019-01-31T08:25:21.935Z,94518.47
2019-01-31T08:27:51.459Z,94521.62
2019-01-31T08:30:25.470Z,94524.73
2019-01-31T08:32:54.083Z,94523.30
2019-01-31T08:35:22.535Z,94519.55
2019-01-31T08:37:51.389Z,94523.81
2019-01-31T08:40:19.775Z,94528.00
2019-01-31T08:42:48.246Z,94530.26
2019-01-31T08:45:16.848Z,94528.49
2019-01-31T08:47:45.239Z,94526.04
2019-01-31T08:50:21.423Z,94529.77
2019-01-31T08:52:49.828Z,94532.95
2019-01-31T08:55:18.295Z,94527.70
2019-01-31T08:57:47.592Z,94532.50
2019-01-31T09:00:24.961Z,94532.47
2019-01-31T09:02:53.632Z,94539.57
2019-01-31T09:05:22.194Z,94543.23
2019-01-31T09:07:50.661Z,94529.82
2019-01-31T09:10:21.705Z,94540.95
2019-01-31T09:12:50.176Z,94539.27
2019-01-31T09:15:23.648Z,94534.04
2019-01-31T09:17:52.301Z,94538.61
2019-01-31T09:20:23.734Z,94543.66
2019-01-31T09:23:00.725Z,94542.19
2019-01-31T09:25:57.949Z,94546.30
2019-01-31T09:28:32.395Z,94542.78
2019-01-31T09:31:03.833Z,94545.91
2019-01-31T09:33:40.729Z,94553.46
2019-01-31T09:36:30.196Z,94545.79
2019-01-31T09:39:26.435Z,94549.78
2019-01-31T09:42:03.688Z,94549.81
2019-01-31T09:44:53.089Z,94546.45
2019-01-31T09:47:42.667Z,94549.75
2019-01-31T09:50:29.076Z,94557.95
2019-01-31T09:53:21.207Z,94557.22
2019-01-31T09:56:08.221Z,94555.67
2019-01-31T09:59:07.091Z,94557.51
2019-01-31T10:01:44.340Z,94550.74
2019-01-31T10:04:33.629Z,94560.72
2019-01-31T10:07:24.682Z,94557.82
2019-01-31T10:09:58.770Z,94550.70
2019-01-31T10:12:40.827Z,94561.19
2019-01-31T10:15:34.253Z,94554.70
2019-01-31T10:18:17.956Z,94562.70
2019-01-31T10:20:49.366Z,94552.46
2019-01-31T10:23:42.632Z,94552.32
2019-01-31T10:26:30.681Z,94548.42
2019-01-31T10:29:20.519Z,94545.17
2019-01-31T10:32:01.167Z,94537.85
2019-01-31T10:34:35.225Z,94529.23
2019-01-31T10:37:31.012Z,94531.00
2019-01-31T10:40:14.210Z,94524.17
2019-01-31T10:42:54.423Z,94530.05
2019-01-31T10:45:28.927Z,94518.97
2019-01-31T10:48:06.413Z,94519.00
2019-01-31T10:50:43.381Z,94519.31
2019-01-31T10:53:29.464Z,94522.91
2019-01-31T10:56:03.643Z,94520.94
2019-01-31T10:58:37.938Z,94516.20
2019-01-31T11:01:09.416Z,94511.31
2019-01-31T11:03:55.756Z,94512.78
2019-01-31T11:06:33.062Z,94508.17
2019-01-31T11:09:16.058Z,94512.40
2019-01-31T11:11:53.542Z,94511.71
2019-01-31T11:14:40.260Z,94508.24
2019-01-31T11:17:34.231Z,94511.98
2019-01-31T11:20:26.986Z,94511.25
2019-01-31T11:23:07.748Z,94509.58
2019-01-31T11:25:47.901Z,94505.91
2019-01-31T11:28:30.630Z,94495.70
2019-01-31T11:31:29.582Z,94491.36
2019-01-31T11:34:04.171Z,94487.41
2019-01-31T11:36:56.501Z,94486.97
2019-01-31T11:39:58.995Z,94480.02
2019-01-31T11:43:11.314Z,94478.63
2019-01-31T11:45:33.866Z,94485.56
2019-01-31T11:48:08.042Z,94481.98
2019-01-31T11:51:02.095Z,94474.37
2019-01-31T11:53:33.536Z,94472.69
2019-01-31T11:56:26.260Z,94470.66
2019-01-31T11:59:02.548Z,94466.45
2019-01-31T12:01:31.079Z,94476.27
2019-01-31T12:04:01.546Z,94466.97
2019-01-31T12:06:30.005Z,94471.20
2019-01-31T12:08:58.568Z,94472.17
2019-01-31T12:11:27.566Z,94465.59
2019-01-31T12:13:56.201Z,94466.61
2019-01-31T12:16:24.663Z,94462.38
2019-01-31T12:18:53.090Z,94460.81
2019-01-31T12:21:21.464Z,94458.09
2019-01-31T12:23:49.930Z,94461.28
2019-01-31T12:26:18.449Z,94457.16
2019-01-31T12:28:46.841Z,94448.52
2019-01-31T12:31:15.230Z,94450.91
2019-01-31T12:33:43.739Z,94447.52
2019-01-31T12:36:12.142Z,94447.77
2019-01-31T12:38:40.538Z,94446.69
2019-01-31T12:41:09.118Z,94440.27
2019-01-31T12:43:37.526Z,94441.69
2019-01-31T12:46:05.980Z,94434.61
2019-01-31T12:48:34.417Z,94429.98
2019-01-31T12:51:02.806Z,94429.91
2019-01-31T12:53:31.195Z,94432.34
2019-01-31T12:55:59.702Z,94420.77
2019-01-31T12:58:33.826Z,94416.87
2019-01-31T13:00:58.283Z,94416.93
2019-01-31T13:03:26.702Z,94413.53
2019-01-31T13:05:55.331Z,94409.18
2019-01-31T13:08:23.724Z,94409.16
2019-01-31T13:10:52.206Z,94403.66
2019-01-31T13:13:20.605Z,94403.30
2019-01-31T13:15:49.001Z,94398.08
2019-01-31T13:18:17.586Z,94390.30
2019-01-31T13:20:46.142Z,94394.05
2019-01-31T13:23:15.076Z,94391.84
2019-01-31T13:25:43.834Z,94392.37
2019-01-31T13:28:12.240Z,94386.92
2019-01-31T13:30:40.703Z,94388.99
2019-01-31T13:33:09.581Z,94383.13
2019-01-31T13:35:38.141Z,94383.83
2019-01-31T13:38:06.600Z,94374.14
2019-01-31T13:40:35.688Z,94374.66
2019-01-31T13:43:04.242Z,94375.55
2019-01-31T13:45:34.575Z,94377.19
2019-01-31T13:48:06.028Z,94376.58
2019-01-31T13:50:34.554Z,94373.47
2019-01-31T13:53:03.864Z,94366.98
2019-01-31T13:55:32.572Z,94366.59
2019-01-31T13:58:00.968Z,94367.22
2019-01-31T14:00:29.374Z,94367.82
2019-01-31T14:02:57.997Z,94363.89
2019-01-31T14:05:26.399Z,94366.10
2019-01-31T14:07:55.827Z,94367.64
2019-01-31T14:10:25.975Z,94358.92
2019-01-31T14:12:54.746Z,94364.80
2019-01-31T14:15:33.991Z,94367.64
2019-01-31T14:18:02.677Z,94369.34
2019-01-31T14:20:31.134Z,94366.31
2019-01-31T14:23:18.948Z,94374.20
2019-01-31T14:25:47.519Z,94372.41
2019-01-31T14:28:15.979Z,94374.53
2019-01-31T14:30:44.573Z,94369.75
2019-01-31T14:33:14.608Z,94380.46
2019-01-31T14:35:43.542Z,94375.27
2019-01-31T14:38:12.376Z,94374.52
2019-01-31T14:40:40.774Z,94376.63
2019-01-31T14:43:09.165Z,94375.00
2019-01-31T14:45:37.822Z,94377.53
2019-01-31T14:48:06.456Z,94379.88
2019-01-31T14:50:36.094Z,94384.16
2019-01-31T14:53:05.050Z,94375.17
2019-01-31T14:55:33.512Z,94371.25
2019-01-31T14:58:01.901Z,94369.25
2019-01-31T15:00:32.126Z,94377.34
2019-01-31T15:03:00.588Z,94372.30
2019-01-31T15:05:29.518Z,94372.86
2019-01-31T15:07:58.032Z,94373.20
2019-01-31T15:10:30.296Z,94375.22
2019-01-31T15:12:58.823Z,94377.10
2019-01-31T15:15:27.781Z,94377.70
2019-01-31T15:17:56.332Z,94374.63
2019-01-31T15:20:36.076Z,94372.97
2019-01-31T15:23:00.486Z,94376.14
2019-01-31T15:25:28.956Z,94372.78
2019-01-31T15:27:57.416Z,94376.13
2019-01-31T15:30:33.949Z,94371.62
2019-01-31T15:33:04.388Z,94375.75
2019-01-31T15:35:32.776Z,94380.49
2019-01-31T15:38:01.241Z,94380.97
2019-01-31T15:40:41.583Z,94382.13
2019-01-31T15:43:10.158Z,94384.23
2019-01-31T15:45:38.619Z,94391.59
2019-01-31T15:48:10.557Z,94393.36
2019-01-31T15:50:38.364Z,94397.09
2019-01-31T15:53:07.094Z,94397.36
2019-01-31T15:55:35.799Z,94401.39
2019-01-31T15:58:04.690Z,94394.48
2019-01-31T16:00:45.169Z,94395.54
2019-01-31T16:03:15.956Z,94392.33
2019-01-31T16:05:44.592Z,94391.44
2019-01-31T16:08:13.253Z,94394.44
2019-01-31T16:10:41.962Z,94394.14
2019-01-31T16:13:10.490Z,94390.92
2019-01-31T16:15:39.213Z,94395.70
2019-01-31T16:18:10.198Z,94395.90
2019-01-31T16:20:38.838Z,94399.86
2019-01-31T16:23:08.379Z,94397.95
2019-01-31T16:25:36.905Z,94400.59
2019-01-31T16:28:05.739Z,94400.13
2019-01-31T16:30:34.504Z,94396.41
2019-01-31T16:33:03.150Z,94399.22
2019-01-31T16:35:31.815Z,94394.55
2019-01-31T16:38:00.280Z,94398.84
2019-01-31T16:40:28.886Z,94399.84
2019-01-31T16:42:57.431Z,94399.06
2019-01-31T16:45:26.097Z,94399.42
2019-01-31T16:47:54.624Z,94389.32
2019-01-31T16:50:24.356Z,94398.49
2019-01-31T16:52:52.770Z,94395.77
2019-01-31T16:55:24.508Z,94399.53
2019-01-31T16:57:53.262Z,94403.49
2019-01-31T17:00:41.062Z,94404.34
2019-01-31T17:03:09.537Z,94400.78
2019-01-31T17:05:37.986Z,94408.80
2019-01-31T17:11:01.371Z,94406.54
2019-01-31T17:13:29.769Z,94404.28
2019-01-31T17:16:17.620Z,94405.11
2019-01-31T17:18:46.015Z,94406.77
2019-01-31T17:21:14.406Z,94396.34
2019-01-31T17:26:17.113Z,94387.34
2019-01-31T17:28:45.545Z,94388.50
2019-01-31T17:34:01.564Z,94378.23
2019-01-31T17:36:29.956Z,94384.78
2019-01-31T17:38:58.355Z,94386.06
2019-01-31T17:41:26.812Z,94384.96
2019-01-31T17:43:55.212Z,94382.98
2019-01-31T17:49:31.968Z,94361.31
2019-01-31T17:52:00.327Z,94364.26
2019-01-31T17:54:28.718Z,94371.75
2019-01-31T17:56:57.174Z,94357.73
2019-01-31T17:59:25.577Z,94354.29
2019-01-31T18:01:55.379Z,94343.55
2019-01-31T18:04:24.224Z,94343.70
2019-01-31T18:06:52.622Z,94342.23
2019-01-31T18:09:21.017Z,94326.88
2019-01-31T18:14:23.946Z,94324.95
2019-01-31T18:19:26.362Z,94310.25
2019-01-31T18:21:54.805Z,94315.47
2019-01-31T18:24:23.192Z,94317.77
2019-01-31T18:26:51.585Z,94308.63
2019-01-31T18:31:53.917Z,94302.44
2019-01-31T18:36:56.310Z,94292.33
2019-01-31T18:41:58.866Z,94289.92
2019-01-31T18:44:28.888Z,94294.47
2019-01-31T18:46:57.285Z,94306.55
2019-01-31T18:49:45.289Z,94302.66
2019-01-31T18:52:13.766Z,94292.06
2019-01-31T18:54:42.156Z,94294.85
2019-01-31T18:57:12.798Z,94284.13
2019-01-31T18:59:40.701Z,94282.34
2019-01-31T19:02:09.082Z,94283.30
2019-01-31T19:12:19.171Z,94275.52
2019-01-31T19:14:47.618Z,94286.59
2019-01-31T19:17:16.013Z,94277.97
2019-01-31T19:19:44.411Z,94275.83
2019-01-31T19:27:21.041Z,94270.96
2019-01-31T19:32:38.538Z,94262.50
2019-01-31T19:35:46.872Z,94248.48
2019-01-31T19:40:48.798Z,94244.73
2019-01-31T19:43:17.192Z,94240.02
2019-01-31T19:46:25.546Z,94239.67
2019-01-31T19:48:53.941Z,94238.72
2019-01-31T19:51:22.407Z,94228.62
2019-01-31T19:53:50.858Z,94238.89
2019-01-31T19:59:27.665Z,94227.33
2019-01-31T20:01:56.137Z,94231.58
2019-01-31T20:04:43.785Z,94213.65
2019-01-31T20:09:59.807Z,94215.45
2019-01-31T20:12:28.205Z,94217.06
2019-01-31T20:17:51.336Z,94211.03
2019-01-31T20:20:39.145Z,94206.16
2019-01-31T20:28:36.967Z,94188.73
2019-01-31T20:31:24.743Z,94186.13
2019-01-31T20:33:53.215Z,94182.05
2019-01-31T20:36:21.614Z,94188.06
2019-01-31T20:38:50.074Z,94178.45
2019-01-31T20:41:37.782Z,94178.78
2019-01-31T20:46:41.027Z,94164.62
2019-01-31T20:49:09.467Z,94160.70
2019-01-31T20:51:37.873Z,94173.23
2019-01-31T20:54:06.334Z,94170.82
2019-01-31T20:59:20.468Z,94170.33
2019-01-31T21:01:48.918Z,94169.02
2019-01-31T21:04:17.308Z,94163.16
2019-01-31T21:07:04.933Z,94159.89
2019-01-31T21:09:33.322Z,94151.08
2019-01-31T21:12:01.713Z,94154.02
2019-01-31T21:17:04.258Z,94143.93
2019-01-31T21:22:07.383Z,94145.54
2019-01-31T21:24:35.805Z,94134.95
2019-01-31T21:30:50.906Z,94130.23
2019-01-31T21:33:19.298Z,94113.60
2019-01-31T21:36:27.956Z,94119.17
2019-01-31T21:38:56.350Z,94111.35
2019-01-31T21:44:19.722Z,94121.59
2019-01-31T21:46:48.116Z,94116.55
2019-01-31T21:49:16.503Z,94120.94
2019-01-31T21:54:18.552Z,94113.75
2019-01-31T21:59:20.631Z,94093.19
2019-01-31T22:01:49.005Z,94074.44
2019-01-31T22:04:17.491Z,94080.80
2019-01-31T22:07:05.215Z,94064.66
2019-01-31T22:09:33.629Z,94067.58
2019-01-31T22:12:02.021Z,94060.55
2019-01-31T22:14:30.415Z,94062.36
2019-01-31T22:16:58.828Z,94058.45
2019-01-31T22:19:27.217Z,94070.82
2019-01-31T22:21:55.615Z,94068.38
2019-01-31T22:24:35.961Z,94074.40
2019-01-31T22:26:54.178Z,94073.23
2019-01-31T22:29:22.587Z,94073.73
2019-01-31T22:34:24.952Z,94070.80
2019-01-31T22:36:53.343Z,94068.02
2019-01-31T22:41:56.054Z,94056.91
2019-01-31T22:44:24.462Z,94052.16
2019-01-31T22:46:52.853Z,94060.28
2019-01-31T22:49:21.250Z,94063.53
2019-01-31T22:51:49.679Z,94054.88
2019-01-31T22:54:18.071Z,94051.43
2019-01-31T22:56:46.466Z,94045.55
2019-01-31T22:59:14.895Z,94036.05
2019-01-31T23:01:43.524Z,94045.52
2019-01-31T23:04:11.915Z,94042.23
2019-01-31T23:06:40.438Z,94038.63
2019-01-31T23:09:09.446Z,94034.91
2019-01-31T23:11:37.904Z,94036.69
2019-01-31T23:14:06.946Z,94019.09
2019-01-31T23:16:35.474Z,94014.38
2019-01-31T23:19:05.008Z,94013.58
2019-01-31T23:21:33.729Z,94015.22
2019-01-31T23:24:02.124Z,94024.05
2019-01-31T23:26:30.596Z,94041.47
2019-01-31T23:28:59.016Z,94032.03
2019-01-31T23:31:27.653Z,94029.59
2019-01-31T23:33:56.111Z,94033.17
2019-01-31T23:36:24.598Z,94041.50
2019-01-31T23:38:52.985Z,94045.91
2019-01-31T23:41:21.446Z,94020.80
2019-01-31T23:43:49.900Z,94021.44
2019-01-31T23:46:18.296Z,94015.89
2019-01-31T23:48:46.690Z,94010.50
2019-01-31T23:51:15.176Z,94004.28
2019-01-31T23:53:43.638Z,94006.89
2019-01-31T23:56:12.099Z,93986.95
2019-01-31T23:58:40.512Z,93992.14
